Kavkaz — UHLO — position and weather

sailwx.info

Track history (hours):
 
Tides and Currents Weather Stations Pressure Air Temp Water Temp Dewpoint Dewpoint Depression Visibility Wind Speed Wind Dir Waves Ship Positions

Kavkaz

Last reported at 2017-Dec-10 12:44 UTC. Time now 2017-Dec-13 19:02 UTC.
Position N 45°09' E 036°26'.

Length 122 m; draft 3.2 m.

Type: Tanker. MMSI: 273316330.

Date/timePositionNaut miles runAvg speedWind from/ knotsBaromVisibWave heightAir tempDewpointWater temp
2017-Dec-10 12:44N 45°09' E 036°26'0 0.0
2017-Dec-10 12:24N 45°09' E 036°26'0 0.0
2017-Dec-10 08:01N 45°09' E 036°26'0 0.0
2017-Dec-09 06:56N 45°09' E 036°26'54 5.1
2017-Dec-08 20:17N 44°38' E 037°30'3 5.7
2017-Dec-08 19:44N 44°37' E 037°34'1 5.3
2017-Dec-08 19:30N 44°36' E 037°35'2 5.0
2017-Dec-08 19:01N 44°36' E 037°39'3 5.0
2017-Dec-08 18:29N 44°36' E 037°42'3 5.1
2017-Dec-08 17:59N 44°36' E 037°46'3 5.2
2017-Dec-08 17:30N 44°36' E 037°50'2 5.1
2017-Dec-08 17:00N 44°36' E 037°53'2 3.4
2017-Dec-08 16:30N 44°36' E 037°55'0 0.1
2017-Dec-08 16:00N 44°36' E 037°55'0 0.0
2017-Dec-08 15:30N 44°36' E 037°55'0 0.0
2017-Dec-08 15:00N 44°36' E 037°55'0 0.0
2017-Dec-08 14:30N 44°36' E 037°55'0 0.0
2017-Dec-08 14:00N 44°36' E 037°55'0 0.0
2017-Dec-08 13:30N 44°36' E 037°55'0 0.1
2017-Dec-08 13:00N 44°36' E 037°55'0 0.0
2017-Dec-08 12:30N 44°36' E 037°55'0 0.0
2017-Dec-08 12:00N 44°36' E 037°55'0 0.0
2017-Dec-08 11:30N 44°36' E 037°55'0 0.1
2017-Dec-08 11:00N 44°36' E 037°55'0 0.0
2017-Dec-08 10:30N 44°36' E 037°55'0 0.0
2017-Dec-08 10:00N 44°36' E 037°55'0 0.0
2017-Dec-08 09:29N 44°36' E 037°55'0 0.0
2017-Dec-08 09:00N 44°36' E 037°55'0 0.0
2017-Dec-08 08:30N 44°36' E 037°55'0 0.0
2017-Dec-08 08:00N 44°36' E 037°55'0 0.0
2017-Dec-08 07:29N 44°36' E 037°55'0 0.0
2017-Dec-08 07:01N 44°36' E 037°55'0 0.0
2017-Dec-08 06:29N 44°36' E 037°55'0 0.0
2017-Dec-08 05:59N 44°36' E 037°55'0 0.1
2017-Dec-08 05:30N 44°36' E 037°55'0 0.0
2017-Dec-08 05:00N 44°36' E 037°55'0 0.0
2017-Dec-08 04:31N 44°36' E 037°55'0 0.0
2017-Dec-08 04:00N 44°36' E 037°55'0 0.0
2017-Dec-08 03:29N 44°36' E 037°55'0 0.0
2017-Dec-08 03:00N 44°36' E 037°55'0 0.0
2017-Dec-08 02:29N 44°36' E 037°55'0 0.0
2017-Dec-08 02:00N 44°36' E 037°55'0 0.0
2017-Dec-08 01:30N 44°36' E 037°55'0 0.0
2017-Dec-08 01:01N 44°36' E 037°55'0 0.0
2017-Dec-08 00:30N 44°36' E 037°55'0 0.0
2017-Dec-08 00:00N 44°36' E 037°55'0 0.0
2017-Dec-07 23:30N 44°36' E 037°55'0 0.1
2017-Dec-07 22:59N 44°36' E 037°55'0 0.0
2017-Dec-07 22:31N 44°36' E 037°55'0 0.0
2017-Dec-07 22:00N 44°36' E 037°55'0 0.0
2017-Dec-07 21:30N 44°36' E 037°55'0 0.0
2017-Dec-07 21:00N 44°36' E 037°55'0 0.0
2017-Dec-07 20:30N 44°36' E 037°55'0 0.0
2017-Dec-07 20:00N 44°36' E 037°55'0 0.0
2017-Dec-07 19:29N 44°36' E 037°55'0 0.0
2017-Dec-07 19:00N 44°36' E 037°55'0 0.0
2017-Dec-07 18:30N 44°36' E 037°55'0 0.0
2017-Dec-07 18:01N 44°36' E 037°55'0 0.0
2017-Dec-07 17:30N 44°36' E 037°55'0 0.0
2017-Dec-07 17:00N 44°36' E 037°55'0 0.0
2017-Dec-07 16:29N 44°36' E 037°55'0 0.0
2017-Dec-07 16:00N 44°36' E 037°55'0 0.0
2017-Dec-07 15:30N 44°36' E 037°55'0 0.0
2017-Dec-07 15:00N 44°36' E 037°55'0 0.0
2017-Dec-07 14:30N 44°36' E 037°55'0 0.0
2017-Dec-07 14:00N 44°36' E 037°55'0 0.0
2017-Dec-07 13:29N 44°36' E 037°55'0 0.0
2017-Dec-07 13:00N 44°36' E 037°55'0 0.0
2017-Dec-07 12:30N 44°36' E 037°55'0 0.0
2017-Dec-07 12:01N 44°36' E 037°55'0 0.0
2017-Dec-07 11:30N 44°36' E 037°55'0 0.0
2017-Dec-07 11:00N 44°36' E 037°55'0 0.0
2017-Dec-07 10:30N 44°36' E 037°55'0 0.0
2017-Dec-07 10:00N 44°36' E 037°55'0 0.0
2017-Dec-07 09:30N 44°36' E 037°55'0 0.0
2017-Dec-07 09:00N 44°36' E 037°55'0 0.0
2017-Dec-07 08:30N 44°36' E 037°55'0 0.0
2017-Dec-07 08:00N 44°36' E 037°55'0 0.0
2017-Dec-07 07:31N 44°36' E 037°55'0 0.1
2017-Dec-07 06:59N 44°36' E 037°55'0 0.0
2017-Dec-07 06:30N 44°36' E 037°55'0 0.0
2017-Dec-07 06:01N 44°36' E 037°55'0 0.0
2017-Dec-07 05:30N 44°36' E 037°55'0 0.0
2017-Dec-07 05:00N 44°36' E 037°55'0 0.0
2017-Dec-07 04:30N 44°36' E 037°55'0 0.0
2017-Dec-07 03:59N 44°36' E 037°55'0 0.1
2017-Dec-07 03:30N 44°36' E 037°55'0 0.0
2017-Dec-07 03:00N 44°36' E 037°55'0 0.0
2017-Dec-07 02:29N 44°36' E 037°55'0 0.0
2017-Dec-07 02:00N 44°36' E 037°55'0 0.0
2017-Dec-07 01:30N 44°36' E 037°55'0 0.0
2017-Dec-07 01:00N 44°36' E 037°55'0 0.0
2017-Dec-07 00:30N 44°36' E 037°55'0 0.1
2017-Dec-07 00:00N 44°36' E 037°55'0 0.0
2017-Dec-06 23:30N 44°36' E 037°55'0 0.0
2017-Dec-06 23:00N 44°36' E 037°55'0 0.0
2017-Dec-06 22:30N 44°36' E 037°55'0 0.0
2017-Dec-06 22:00N 44°36' E 037°55'0 0.0
2017-Dec-06 21:29N 44°36' E 037°55'0 0.0
2017-Dec-06 20:59N 44°36' E 037°55'  
2017-Dec-04 10:30N 44°36' E 037°55'0 0.1
2017-Dec-04 10:00N 44°36' E 037°55'0 0.1
2017-Dec-04 09:29N 44°36' E 037°55'0 0.0
2017-Dec-04 09:00N 44°36' E 037°55'0 0.0
2017-Dec-04 08:30N 44°36' E 037°55'0 0.0
2017-Dec-04 08:00N 44°36' E 037°55'0 0.0
2017-Dec-04 07:30N 44°36' E 037°55'0 0.0
2017-Dec-04 07:00N 44°36' E 037°55'0 0.0
2017-Dec-04 06:30N 44°36' E 037°55'0 0.0
2017-Dec-04 06:00N 44°36' E 037°55'0 0.1
2017-Dec-04 05:29N 44°36' E 037°55'0 0.0
2017-Dec-04 05:00N 44°36' E 037°55'0 0.0
2017-Dec-04 03:58N 44°36' E 037°55'0 0.0
2017-Dec-04 03:30N 44°36' E 037°55'0 0.0
2017-Dec-04 03:00N 44°36' E 037°55'0 0.0
2017-Dec-04 02:30N 44°36' E 037°55'0 0.0
2017-Dec-04 02:00N 44°36' E 037°55'0 0.0
2017-Dec-04 01:31N 44°36' E 037°55'0 0.0
2017-Dec-04 01:00N 44°36' E 037°55'0 0.0
2017-Dec-04 00:30N 44°36' E 037°55'0 0.0
2017-Dec-04 00:00N 44°36' E 037°55'0 0.0
2017-Dec-03 23:31N 44°36' E 037°55'0 0.0
2017-Dec-03 23:00N 44°36' E 037°55'0 0.0
2017-Dec-03 22:29N 44°36' E 037°55'0 0.0
2017-Dec-03 22:00N 44°36' E 037°55'0 0.0
2017-Dec-03 21:30N 44°36' E 037°55'0 0.0
2017-Dec-03 21:00N 44°36' E 037°55'0 0.0
2017-Dec-03 20:29N 44°36' E 037°55'0 0.0
2017-Dec-03 20:00N 44°36' E 037°55'0 0.0
2017-Dec-03 19:30N 44°36' E 037°55'0 0.0
2017-Dec-03 19:01N 44°36' E 037°55'0 0.0
2017-Dec-03 18:30N 44°36' E 037°55'0 0.0
2017-Dec-03 17:59N 44°36' E 037°55'0 0.0
2017-Dec-03 17:30N 44°36' E 037°55'0 0.0
2017-Dec-03 16:59N 44°36' E 037°55'0 0.0
2017-Dec-03 16:30N 44°36' E 037°55'0 0.0
2017-Dec-03 16:00N 44°36' E 037°55'0 0.0
2017-Dec-03 15:30N 44°36' E 037°55'0 0.0
2017-Dec-03 15:00N 44°36' E 037°55'1 2.5
2017-Dec-03 14:30N 44°36' E 037°53'3 5.1
2017-Dec-03 14:00N 44°36' E 037°50'2 4.9
2017-Dec-03 13:30N 44°36' E 037°46'2 4.8
2017-Dec-03 12:59N 44°35' E 037°43'2 4.9
2017-Dec-03 12:30N 44°35' E 037°40'2 5.0
2017-Dec-03 12:01N 44°35' E 037°36'3 5.0
2017-Dec-03 11:30N 44°37' E 037°33'3 5.1
2017-Dec-03 11:00N 44°38' E 037°30'3 5.1
2017-Dec-03 10:29N 44°40' E 037°27'45 4.8
2017-Dec-03 01:06N 45°03' E 036°32'1 4.6
2017-Dec-03 00:55N 45°03' E 036°31'8 4.5
2017-Dec-02 23:07N 45°11' E 036°28'1 5.1
2017-Dec-02 22:58N 45°12' E 036°28'3 5.1
2017-Dec-02 22:28N 45°15' E 036°28'2 5.0
2017-Dec-02 22:00N 45°17' E 036°29'2 5.0
2017-Dec-02 21:30N 45°19' E 036°31'1 2.1
2017-Dec-02 21:00N 45°19' E 036°33'2 4.0
2017-Dec-02 20:30N 45°20' E 036°35'2 4.8
2017-Dec-02 20:00N 45°21' E 036°38'2 5.0
2017-Dec-02 19:30N 45°22' E 036°41'1 2.0
2017-Dec-02 19:00N 45°23' E 036°42'0 0.0
2017-Dec-02 18:30N 45°23' E 036°42'0 0.0
2017-Dec-02 18:01N 45°23' E 036°42'0 0.0
2017-Dec-02 17:30N 45°23' E 036°42'0 0.1
2017-Dec-02 16:59N 45°23' E 036°42'0 0.0
2017-Dec-02 16:30N 45°23' E 036°42'0 0.0
2017-Dec-02 16:00N 45°23' E 036°42'0 0.0
2017-Dec-02 15:29N 45°23' E 036°42'0 0.0
2017-Dec-02 15:00N 45°23' E 036°42'0 0.1
2017-Dec-02 14:30N 45°23' E 036°42'0 0.0
2017-Dec-02 14:00N 45°23' E 036°42'0 0.1
2017-Dec-02 13:29N 45°23' E 036°42'0 0.0
2017-Dec-02 13:01N 45°23' E 036°42'0 0.0
2017-Dec-02 12:29N 45°23' E 036°42'0 0.0
2017-Dec-02 12:00N 45°23' E 036°42'0 0.0
2017-Dec-02 11:30N 45°23' E 036°42'0 0.0
2017-Dec-02 10:59N 45°23' E 036°42'0 0.0
2017-Dec-02 10:30N 45°23' E 036°42'0 0.0
2017-Dec-02 10:00N 45°23' E 036°42'0 0.0
2017-Dec-02 09:29N 45°23' E 036°42'0 0.0
2017-Dec-02 09:00N 45°23' E 036°42'0 0.0
2017-Dec-02 08:30N 45°23' E 036°42'0 0.0
2017-Dec-02 08:00N 45°23' E 036°42'0 0.0
2017-Dec-02 07:30N 45°23' E 036°42'0 0.0
2017-Dec-02 06:59N 45°23' E 036°42'0 0.0
2017-Dec-02 06:30N 45°23' E 036°42'0 0.0
2017-Dec-02 06:00N 45°23' E 036°42'0 0.0
2017-Dec-02 05:30N 45°23' E 036°42'0 0.0
2017-Dec-02 05:00N 45°23' E 036°42'0 0.0
2017-Dec-02 04:30N 45°23' E 036°42'0 0.0
2017-Dec-02 04:00N 45°23' E 036°42'0 0.0
2017-Dec-02 03:30N 45°23' E 036°42'0 0.0
2017-Dec-02 03:00N 45°23' E 036°42'0 0.0
2017-Dec-02 02:30N 45°23' E 036°42'0 0.0
2017-Dec-02 02:00N 45°23' E 036°42'0 0.0
2017-Dec-02 01:30N 45°23' E 036°42'0 0.0
2017-Dec-02 01:00N 45°23' E 036°42'0 0.0
2017-Dec-02 00:30N 45°23' E 036°42'0 0.0
2017-Dec-01 23:59N 45°23' E 036°42'0 0.0
2017-Dec-01 23:30N 45°23' E 036°42'0 0.0
2017-Dec-01 23:00N 45°23' E 036°42'0 0.0
2017-Dec-01 22:30N 45°23' E 036°42'0 0.0
2017-Dec-01 22:00N 45°23' E 036°42'0 0.0
2017-Dec-01 21:30N 45°23' E 036°42'0 0.0
2017-Dec-01 20:59N 45°23' E 036°42'0 0.0
2017-Dec-01 20:30N 45°23' E 036°42'0 0.0
2017-Dec-01 19:59N 45°23' E 036°42'0 0.0
2017-Dec-01 19:30N 45°23' E 036°42'0 0.0
2017-Dec-01 18:59N 45°23' E 036°42'0 0.1
2017-Dec-01 18:30N 45°23' E 036°42'2 3.4
2017-Dec-01 18:01N 45°24' E 036°43'2 4.7
2017-Dec-01 17:30N 45°26' E 036°45'2 4.9
2017-Dec-01 17:00N 45°28' E 036°48'3 5.0
2017-Dec-01 16:28N 45°28' E 036°51'  
Track history (hours):
 
Tides and Currents Weather Stations Pressure Air Temp Water Temp Dewpoint Dewpoint Depression Visibility Wind Speed Wind Dir Waves Ship Positions

Kavkaz

Last reported at 2017-Dec-10 12:44 UTC. Time now 2017-Dec-13 19:02 UTC.
Position N 45°09' E 036°26'.

Length 122 m; draft 3.2 m.

Type: Tanker. MMSI: 273316330.

Date/timePositionNaut miles runAvg speedWind from/ knotsBaromVisibWave heightAir tempDewpointWater temp
2017-Dec-10 12:44N 45°09' E 036°26'0 0.0
2017-Dec-10 12:24N 45°09' E 036°26'0 0.0
2017-Dec-10 08:01N 45°09' E 036°26'0 0.0
2017-Dec-09 06:56N 45°09' E 036°26'54 5.1
2017-Dec-08 20:17N 44°38' E 037°30'3 5.7
2017-Dec-08 19:44N 44°37' E 037°34'1 5.3
2017-Dec-08 19:30N 44°36' E 037°35'2 5.0
2017-Dec-08 19:01N 44°36' E 037°39'3 5.0
2017-Dec-08 18:29N 44°36' E 037°42'3 5.1
2017-Dec-08 17:59N 44°36' E 037°46'3 5.2
2017-Dec-08 17:30N 44°36' E 037°50'2 5.1
2017-Dec-08 17:00N 44°36' E 037°53'2 3.4
2017-Dec-08 16:30N 44°36' E 037°55'0 0.1
2017-Dec-08 16:00N 44°36' E 037°55'0 0.0
2017-Dec-08 15:30N 44°36' E 037°55'0 0.0
2017-Dec-08 15:00N 44°36' E 037°55'0 0.0
2017-Dec-08 14:30N 44°36' E 037°55'0 0.0
2017-Dec-08 14:00N 44°36' E 037°55'0 0.0
2017-Dec-08 13:30N 44°36' E 037°55'0 0.1
2017-Dec-08 13:00N 44°36' E 037°55'0 0.0
2017-Dec-08 12:30N 44°36' E 037°55'0 0.0
2017-Dec-08 12:00N 44°36' E 037°55'0 0.0
2017-Dec-08 11:30N 44°36' E 037°55'0 0.1
2017-Dec-08 11:00N 44°36' E 037°55'0 0.0
2017-Dec-08 10:30N 44°36' E 037°55'0 0.0
2017-Dec-08 10:00N 44°36' E 037°55'0 0.0
2017-Dec-08 09:29N 44°36' E 037°55'0 0.0
2017-Dec-08 09:00N 44°36' E 037°55'0 0.0
2017-Dec-08 08:30N 44°36' E 037°55'0 0.0
2017-Dec-08 08:00N 44°36' E 037°55'0 0.0
2017-Dec-08 07:29N 44°36' E 037°55'0 0.0
2017-Dec-08 07:01N 44°36' E 037°55'0 0.0
2017-Dec-08 06:29N 44°36' E 037°55'0 0.0
2017-Dec-08 05:59N 44°36' E 037°55'0 0.1
2017-Dec-08 05:30N 44°36' E 037°55'0 0.0
2017-Dec-08 05:00N 44°36' E 037°55'0 0.0
2017-Dec-08 04:31N 44°36' E 037°55'0 0.0
2017-Dec-08 04:00N 44°36' E 037°55'0 0.0
2017-Dec-08 03:29N 44°36' E 037°55'0 0.0
2017-Dec-08 03:00N 44°36' E 037°55'0 0.0
2017-Dec-08 02:29N 44°36' E 037°55'0 0.0
2017-Dec-08 02:00N 44°36' E 037°55'0 0.0
2017-Dec-08 01:30N 44°36' E 037°55'0 0.0
2017-Dec-08 01:01N 44°36' E 037°55'0 0.0
2017-Dec-08 00:30N 44°36' E 037°55'0 0.0
2017-Dec-08 00:00N 44°36' E 037°55'0 0.0
2017-Dec-07 23:30N 44°36' E 037°55'0 0.1
2017-Dec-07 22:59N 44°36' E 037°55'0 0.0
2017-Dec-07 22:31N 44°36' E 037°55'0 0.0
2017-Dec-07 22:00N 44°36' E 037°55'0 0.0
2017-Dec-07 21:30N 44°36' E 037°55'0 0.0
2017-Dec-07 21:00N 44°36' E 037°55'0 0.0
2017-Dec-07 20:30N 44°36' E 037°55'0 0.0
2017-Dec-07 20:00N 44°36' E 037°55'0 0.0
2017-Dec-07 19:29N 44°36' E 037°55'0 0.0
2017-Dec-07 19:00N 44°36' E 037°55'0 0.0
2017-Dec-07 18:30N 44°36' E 037°55'0 0.0
2017-Dec-07 18:01N 44°36' E 037°55'0 0.0
2017-Dec-07 17:30N 44°36' E 037°55'0 0.0
2017-Dec-07 17:00N 44°36' E 037°55'0 0.0
2017-Dec-07 16:29N 44°36' E 037°55'0 0.0
2017-Dec-07 16:00N 44°36' E 037°55'0 0.0
2017-Dec-07 15:30N 44°36' E 037°55'0 0.0
2017-Dec-07 15:00N 44°36' E 037°55'0 0.0
2017-Dec-07 14:30N 44°36' E 037°55'0 0.0
2017-Dec-07 14:00N 44°36' E 037°55'0 0.0
2017-Dec-07 13:29N 44°36' E 037°55'0 0.0
2017-Dec-07 13:00N 44°36' E 037°55'0 0.0
2017-Dec-07 12:30N 44°36' E 037°55'0 0.0
2017-Dec-07 12:01N 44°36' E 037°55'0 0.0
2017-Dec-07 11:30N 44°36' E 037°55'0 0.0
2017-Dec-07 11:00N 44°36' E 037°55'0 0.0
2017-Dec-07 10:30N 44°36' E 037°55'0 0.0
2017-Dec-07 10:00N 44°36' E 037°55'0 0.0
2017-Dec-07 09:30N 44°36' E 037°55'0 0.0
2017-Dec-07 09:00N 44°36' E 037°55'0 0.0
2017-Dec-07 08:30N 44°36' E 037°55'0 0.0
2017-Dec-07 08:00N 44°36' E 037°55'0 0.0
2017-Dec-07 07:31N 44°36' E 037°55'0 0.1
2017-Dec-07 06:59N 44°36' E 037°55'0 0.0
2017-Dec-07 06:30N 44°36' E 037°55'0 0.0
2017-Dec-07 06:01N 44°36' E 037°55'0 0.0
2017-Dec-07 05:30N 44°36' E 037°55'0 0.0
2017-Dec-07 05:00N 44°36' E 037°55'0 0.0
2017-Dec-07 04:30N 44°36' E 037°55'0 0.0
2017-Dec-07 03:59N 44°36' E 037°55'0 0.1
2017-Dec-07 03:30N 44°36' E 037°55'0 0.0
2017-Dec-07 03:00N 44°36' E 037°55'0 0.0
2017-Dec-07 02:29N 44°36' E 037°55'0 0.0
2017-Dec-07 02:00N 44°36' E 037°55'0 0.0
2017-Dec-07 01:30N 44°36' E 037°55'0 0.0
2017-Dec-07 01:00N 44°36' E 037°55'0 0.0
2017-Dec-07 00:30N 44°36' E 037°55'0 0.1
2017-Dec-07 00:00N 44°36' E 037°55'0 0.0
2017-Dec-06 23:30N 44°36' E 037°55'0 0.0
2017-Dec-06 23:00N 44°36' E 037°55'0 0.0
2017-Dec-06 22:30N 44°36' E 037°55'0 0.0
2017-Dec-06 22:00N 44°36' E 037°55'0 0.0
2017-Dec-06 21:29N 44°36' E 037°55'0 0.0
2017-Dec-06 20:59N 44°36' E 037°55'  
2017-Dec-04 10:30N 44°36' E 037°55'0 0.1
2017-Dec-04 10:00N 44°36' E 037°55'0 0.1
2017-Dec-04 09:29N 44°36' E 037°55'0 0.0
2017-Dec-04 09:00N 44°36' E 037°55'0 0.0
2017-Dec-04 08:30N 44°36' E 037°55'0 0.0
2017-Dec-04 08:00N 44°36' E 037°55'0 0.0
2017-Dec-04 07:30N 44°36' E 037°55'0 0.0
2017-Dec-04 07:00N 44°36' E 037°55'0 0.0
2017-Dec-04 06:30N 44°36' E 037°55'0 0.0
2017-Dec-04 06:00N 44°36' E 037°55'0 0.1
2017-Dec-04 05:29N 44°36' E 037°55'0 0.0
2017-Dec-04 05:00N 44°36' E 037°55'0 0.0
2017-Dec-04 03:58N 44°36' E 037°55'0 0.0
2017-Dec-04 03:30N 44°36' E 037°55'0 0.0
2017-Dec-04 03:00N 44°36' E 037°55'0 0.0
2017-Dec-04 02:30N 44°36' E 037°55'0 0.0
2017-Dec-04 02:00N 44°36' E 037°55'0 0.0
2017-Dec-04 01:31N 44°36' E 037°55'0 0.0
2017-Dec-04 01:00N 44°36' E 037°55'0 0.0
2017-Dec-04 00:30N 44°36' E 037°55'0 0.0
2017-Dec-04 00:00N 44°36' E 037°55'0 0.0
2017-Dec-03 23:31N 44°36' E 037°55'0 0.0
2017-Dec-03 23:00N 44°36' E 037°55'0 0.0
2017-Dec-03 22:29N 44°36' E 037°55'0 0.0
2017-Dec-03 22:00N 44°36' E 037°55'0 0.0
2017-Dec-03 21:30N 44°36' E 037°55'0 0.0
2017-Dec-03 21:00N 44°36' E 037°55'0 0.0
2017-Dec-03 20:29N 44°36' E 037°55'0 0.0
2017-Dec-03 20:00N 44°36' E 037°55'0 0.0
2017-Dec-03 19:30N 44°36' E 037°55'0 0.0
2017-Dec-03 19:01N 44°36' E 037°55'0 0.0
2017-Dec-03 18:30N 44°36' E 037°55'0 0.0
2017-Dec-03 17:59N 44°36' E 037°55'0 0.0
2017-Dec-03 17:30N 44°36' E 037°55'0 0.0
2017-Dec-03 16:59N 44°36' E 037°55'0 0.0
2017-Dec-03 16:30N 44°36' E 037°55'0 0.0
2017-Dec-03 16:00N 44°36' E 037°55'0 0.0
2017-Dec-03 15:30N 44°36' E 037°55'0 0.0
2017-Dec-03 15:00N 44°36' E 037°55'1 2.5
2017-Dec-03 14:30N 44°36' E 037°53'3 5.1
2017-Dec-03 14:00N 44°36' E 037°50'2 4.9
2017-Dec-03 13:30N 44°36' E 037°46'2 4.8
2017-Dec-03 12:59N 44°35' E 037°43'2 4.9
2017-Dec-03 12:30N 44°35' E 037°40'2 5.0
2017-Dec-03 12:01N 44°35' E 037°36'3 5.0
2017-Dec-03 11:30N 44°37' E 037°33'3 5.1
2017-Dec-03 11:00N 44°38' E 037°30'3 5.1
2017-Dec-03 10:29N 44°40' E 037°27'45 4.8
2017-Dec-03 01:06N 45°03' E 036°32'1 4.6
2017-Dec-03 00:55N 45°03' E 036°31'8 4.5
2017-Dec-02 23:07N 45°11' E 036°28'1 5.1
2017-Dec-02 22:58N 45°12' E 036°28'3 5.1
2017-Dec-02 22:28N 45°15' E 036°28'2 5.0
2017-Dec-02 22:00N 45°17' E 036°29'2 5.0
2017-Dec-02 21:30N 45°19' E 036°31'1 2.1
2017-Dec-02 21:00N 45°19' E 036°33'2 4.0
2017-Dec-02 20:30N 45°20' E 036°35'2 4.8
2017-Dec-02 20:00N 45°21' E 036°38'2 5.0
2017-Dec-02 19:30N 45°22' E 036°41'1 2.0
2017-Dec-02 19:00N 45°23' E 036°42'0 0.0
2017-Dec-02 18:30N 45°23' E 036°42'0 0.0
2017-Dec-02 18:01N 45°23' E 036°42'0 0.0
2017-Dec-02 17:30N 45°23' E 036°42'0 0.1
2017-Dec-02 16:59N 45°23' E 036°42'0 0.0
2017-Dec-02 16:30N 45°23' E 036°42'0 0.0
2017-Dec-02 16:00N 45°23' E 036°42'0 0.0
2017-Dec-02 15:29N 45°23' E 036°42'0 0.0
2017-Dec-02 15:00N 45°23' E 036°42'0 0.1
2017-Dec-02 14:30N 45°23' E 036°42'0 0.0
2017-Dec-02 14:00N 45°23' E 036°42'0 0.1
2017-Dec-02 13:29N 45°23' E 036°42'0 0.0
2017-Dec-02 13:01N 45°23' E 036°42'0 0.0
2017-Dec-02 12:29N 45°23' E 036°42'0 0.0
2017-Dec-02 12:00N 45°23' E 036°42'0 0.0
2017-Dec-02 11:30N 45°23' E 036°42'0 0.0
2017-Dec-02 10:59N 45°23' E 036°42'0 0.0
2017-Dec-02 10:30N 45°23' E 036°42'0 0.0
2017-Dec-02 10:00N 45°23' E 036°42'0 0.0
2017-Dec-02 09:29N 45°23' E 036°42'0 0.0
2017-Dec-02 09:00N 45°23' E 036°42'0 0.0
2017-Dec-02 08:30N 45°23' E 036°42'0 0.0
2017-Dec-02 08:00N 45°23' E 036°42'0 0.0
2017-Dec-02 07:30N 45°23' E 036°42'0 0.0
2017-Dec-02 06:59N 45°23' E 036°42'0 0.0
2017-Dec-02 06:30N 45°23' E 036°42'0 0.0
2017-Dec-02 06:00N 45°23' E 036°42'0 0.0
2017-Dec-02 05:30N 45°23' E 036°42'0 0.0
2017-Dec-02 05:00N 45°23' E 036°42'0 0.0
2017-Dec-02 04:30N 45°23' E 036°42'0 0.0
2017-Dec-02 04:00N 45°23' E 036°42'0 0.0
2017-Dec-02 03:30N 45°23' E 036°42'0 0.0
2017-Dec-02 03:00N 45°23' E 036°42'0 0.0
2017-Dec-02 02:30N 45°23' E 036°42'0 0.0
2017-Dec-02 02:00N 45°23' E 036°42'0 0.0
2017-Dec-02 01:30N 45°23' E 036°42'0 0.0
2017-Dec-02 01:00N 45°23' E 036°42'0 0.0
2017-Dec-02 00:30N 45°23' E 036°42'0 0.0
2017-Dec-01 23:59N 45°23' E 036°42'0 0.0
2017-Dec-01 23:30N 45°23' E 036°42'0 0.0
2017-Dec-01 23:00N 45°23' E 036°42'0 0.0
2017-Dec-01 22:30N 45°23' E 036°42'0 0.0
2017-Dec-01 22:00N 45°23' E 036°42'0 0.0
2017-Dec-01 21:30N 45°23' E 036°42'0 0.0
2017-Dec-01 20:59N 45°23' E 036°42'0 0.0
2017-Dec-01 20:30N 45°23' E 036°42'0 0.0
2017-Dec-01 19:59N 45°23' E 036°42'0 0.0
2017-Dec-01 19:30N 45°23' E 036°42'0 0.0
2017-Dec-01 18:59N 45°23' E 036°42'0 0.1
2017-Dec-01 18:30N 45°23' E 036°42'2 3.4
2017-Dec-01 18:01N 45°24' E 036°43'2 4.7
2017-Dec-01 17:30N 45°26' E 036°45'2 4.9
2017-Dec-01 17:00N 45°28' E 036°48'3 5.0
2017-Dec-01 16:28N 45°28' E 036°51'  

Dump ship's entire track history